Wetterdaten: Woche 17.12.18 - 23.12.18 (KW51)
Datum Zeit Temp. A. Feuchte A. Luftdruck Regen Wind Richtung Taupunkt Windchill Windben
17.12.2018 00:00 -1,5 C 82 % 1019,3 hPa 0,0 l/m 0,1 km/h N -4,1 C -1,5 C 3,2 km/h
17.12.2018 01:00 -1,7 C 83 % 1019,1 hPa 0,0 l/m 0,0 km/h N -4,2 C -1,7 C 2,0 km/h
17.12.2018 02:00 -1,6 C 83 % 1019,4 hPa 0,0 l/m 0,0 km/h N -4,1 C -1,6 C 0,4 km/h
17.12.2018 03:00 -1,6 C 83 % 1019,4 hPa 0,0 l/m 0,0 km/h N -4,1 C -1,6 C 0,8 km/h
17.12.2018 04:00 -1,8 C 83 % 1019,5 hPa 0,0 l/m 0,0 km/h N -4,3 C -1,8 C 0,0 km/h
17.12.2018 05:00 -2,1 C 83 % 1019,9 hPa 0,0 l/m 0,0 km/h N -4,6 C -2,1 C 0,0 km/h
17.12.2018 06:00 -2,3 C 83 % 1020,5 hPa 0,0 l/m 0,0 km/h N -4,8 C -2,3 C 0,0 km/h
17.12.2018 07:00 -2,3 C 83 % 1020,8 hPa 0,0 l/m 0,0 km/h N -4,8 C -2,3 C 0,4 km/h
17.12.2018 08:00 -2,1 C 83 % 1021,6 hPa 0,0 l/m 0,1 km/h N -4,6 C -2,1 C 0,8 km/h
17.12.2018 09:00 -1,7 C 83 % 1022,5 hPa 0,0 l/m 0,0 km/h N -4,2 C -1,7 C 1,6 km/h
17.12.2018 10:00 -1,0 C 83 % 1023,1 hPa 0,0 l/m 0,0 km/h N -3,5 C -1,0 C 0,0 km/h
17.12.2018 11:00 -0,1 C 83 % 1023,0 hPa 0,0 l/m 0,0 km/h N -2,7 C -0,1 C 0,8 km/h
17.12.2018 12:00 0,1 C 83 % 1023,1 hPa 0,0 l/m 0,0 km/h N -2,5 C 0,1 C 1,6 km/h
17.12.2018 13:00 0,6 C 82 % 1023,3 hPa 0,0 l/m 0,0 km/h N -2,1 C 0,6 C 0,0 km/h
17.12.2018 14:00 0,7 C 81 % 1023,9 hPa 0,0 l/m 0,0 km/h N -2,2 C 0,7 C 0,0 km/h
17.12.2018 15:00 0,8 C 82 % 1024,6 hPa 0,0 l/m 0,7 km/h N -2,0 C 0,8 C 3,6 km/h
17.12.2018 16:00 1,7 C 82 % 1025,1 hPa 0,0 l/m 2,3 km/h N -1,0 C 1,7 C 7,2 km/h
17.12.2018 17:00 1,7 C 82 % 1026,0 hPa 0,0 l/m 1,8 km/h N -1,0 C 1,7 C 5,2 km/h
17.12.2018 18:00 1,5 C 82 % 1026,8 hPa 0,0 l/m 0,4 km/h N -1,2 C 1,5 C 2,0 km/h
17.12.2018 19:00 1,2 C 82 % 1027,4 hPa 0,0 l/m 0,0 km/h N -1,5 C 1,2 C 0,4 km/h
17.12.2018 20:00 1,1 C 82 % 1027,6 hPa 0,0 l/m 0,0 km/h N -1,6 C 1,1 C 0,0 km/h
17.12.2018 21:00 1,8 C 81 % 1027,3 hPa 0,0 l/m 2,0 km/h N -1,0 C 1,8 C 6,4 km/h
17.12.2018 22:00 1,9 C 82 % 1027,5 hPa 0,0 l/m 0,6 km/h N -0,9 C 1,9 C 2,4 km/h
17.12.2018 23:00 1,3 C 82 % 1027,8 hPa 0,0 l/m 0,0 km/h N -1,4 C 1,3 C 0,0 km/h
18.12.2018 00:00 1,1 C 82 % 1027,8 hPa 0,0 l/m 0,0 km/h N -1,6 C 1,1 C 0,4 km/h
18.12.2018 01:00 1,3 C 82 % 1027,8 hPa 0,0 l/m 1,5 km/h N -1,5 C 1,3 C 6,8 km/h
18.12.2018 02:00 4,1 C 82 % 1027,7 hPa 0,5 l/m 8,9 km/h N 1,3 C 1,8 C 22,5 km/h
18.12.2018 03:00 4,3 C 81 % 1027,8 hPa 0,5 l/m 8,3 km/h N 1,4 C 2,7 C 23,3 km/h
18.12.2018 04:00 3,9 C 81 % 1027,9 hPa 0,0 l/m 6,7 km/h N 1,0 C 3,7 C 19,3 km/h
18.12.2018 05:00 3,9 C 81 % 1028,2 hPa 0,3 l/m 5,7 km/h N 0,9 C 3,8 C 16,5 km/h
18.12.2018 06:00 3,9 C 80 % 1028,6 hPa 0,0 l/m 2,2 km/h N 0,8 C 3,9 C 7,6 km/h
18.12.2018 07:00 3,3 C 81 % 1028,6 hPa 0,0 l/m 1,1 km/h N 0,4 C 3,3 C 4,8 km/h
18.12.2018 08:00 3,0 C 82 % 1029,1 hPa 0,0 l/m 0,6 km/h N 0,3 C 3,0 C 2,8 km/h
18.12.2018 09:00 3,7 C 82 % 1029,4 hPa 0,0 l/m 0,9 km/h N 0,9 C 3,7 C 4,0 km/h
18.12.2018 10:00 4,6 C 82 % 1029,4 hPa 0,0 l/m 2,3 km/h N 1,8 C 4,6 C 6,8 km/h
18.12.2018 11:00 5,3 C 81 % 1028,9 hPa 0,0 l/m 2,0 km/h N 2,3 C 5,3 C 6,0 km/h
18.12.2018 12:00 6,3 C 80 % 1028,1 hPa 0,0 l/m 0,4 km/h N 3,0 C 6,3 C 4,0 km/h
18.12.2018 13:00 6,8 C 79 % 1027,7 hPa 0,0 l/m 0,0 km/h N 3,4 C 6,8 C 0,4 km/h
18.12.2018 14:00 5,8 C 79 % 1027,7 hPa 0,0 l/m 0,0 km/h N 2,5 C 5,8 C 0,8 km/h
18.12.2018 15:00 4,3 C 80 % 1027,8 hPa 0,0 l/m 0,0 km/h N 1,1 C 4,3 C 0,0 km/h
18.12.2018 16:00 2,8 C 81 % 1027,6 hPa 0,0 l/m 0,0 km/h N -0,2 C 2,8 C 0,0 km/h
18.12.2018 17:00 2,2 C 82 % 1027,8 hPa 0,0 l/m 0,0 km/h N -0,6 C 2,2 C 0,4 km/h
18.12.2018 18:00 1,4 C 82 % 1027,8 hPa 0,0 l/m 0,0 km/h N -1,3 C 1,4 C 0,0 km/h
18.12.2018 19:00 -0,1 C 83 % 1027,9 hPa 0,0 l/m 0,0 km/h N -2,6 C -0,1 C 0,0 km/h
18.12.2018 20:00 -1,2 C 83 % 1027,6 hPa 0,0 l/m 0,0 km/h N -3,7 C -1,2 C 0,0 km/h
18.12.2018 21:00 -1,8 C 82 % 1027,6 hPa 0,0 l/m 0,0 km/h N -4,4 C -1,8 C 0,0 km/h
18.12.2018 22:00 -2,2 C 82 % 1027,4 hPa 0,0 l/m 0,0 km/h N -4,8 C -2,2 C 0,0 km/h
18.12.2018 23:00 -2,6 C 82 % 1027,1 hPa 0,0 l/m 0,0 km/h N -5,2 C -2,6 C 0,0 km/h
19.12.2018 00:00 -3,2 C 82 % 1026,6 hPa 0,0 l/m 0,0 km/h N -5,8 C -3,2 C 0,0 km/h
19.12.2018 01:00 -3,0 C 82 % 1025,9 hPa 0,0 l/m 0,0 km/h N -5,7 C -3,0 C 0,8 km/h
19.12.2018 02:00 -1,9 C 82 % 1025,5 hPa 0,0 l/m 0,0 km/h N -4,6 C -1,9 C 1,6 km/h
19.12.2018 03:00 -1,5 C 82 % 1025,1 hPa 0,0 l/m 0,0 km/h N -4,1 C -1,5 C 3,2 km/h
19.12.2018 04:00 -1,6 C 82 % 1024,7 hPa 0,0 l/m 0,0 km/h N -4,3 C -1,6 C 0,8 km/h
19.12.2018 05:00 -2,8 C 82 % 1024,3 hPa 0,0 l/m 0,0 km/h N -5,4 C -2,8 C 0,0 km/h
19.12.2018 06:00 -3,7 C 82 % 1023,9 hPa 0,0 l/m 0,0 km/h N -6,3 C -3,7 C 0,0 km/h
19.12.2018 07:00 -1,5 C 83 % 1023,5 hPa 0,0 l/m 0,8 km/h N -4,1 C -1,5 C 4,8 km/h
19.12.2018 08:00 -0,1 C 82 % 1023,4 hPa 0,0 l/m 0,8 km/h N -2,8 C -0,1 C 5,6 km/h
19.12.2018 09:00 0,3 C 82 % 1023,4 hPa 0,0 l/m 0,0 km/h N -2,5 C 0,3 C 5,6 km/h
19.12.2018 10:00 1,2 C 82 % 1023,1 hPa 0,0 l/m 2,8 km/h N -1,5 C 1,2 C 6,8 km/h
19.12.2018 11:00 2,2 C 82 % 1022,7 hPa 0,0 l/m 1,5 km/h N -0,6 C 2,2 C 8,0 km/h
19.12.2018 12:00 3,1 C 81 % 1022,4 hPa 0,0 l/m 1,4 km/h N 0,2 C 3,1 C 7,6 km/h
19.12.2018 13:00 3,8 C 78 % 1022,0 hPa 0,0 l/m 0,8 km/h N 0,3 C 3,8 C 5,6 km/h
19.12.2018 14:00 3,5 C 76 % 1021,8 hPa 0,0 l/m 1,2 km/h N -0,3 C 3,5 C 10,4 km/h
19.12.2018 15:00 2,7 C 77 % 1021,8 hPa 0,0 l/m 1,3 km/h N -1,0 C 2,7 C 7,6 km/h
19.12.2018 16:00 1,8 C 78 % 1021,7 hPa 0,0 l/m 1,1 km/h N -1,6 C 1,8 C 5,6 km/h
19.12.2018 17:00 1,4 C 79 % 1021,6 hPa 0,0 l/m 1,1 km/h N -1,9 C 1,4 C 5,2 km/h
19.12.2018 18:00 0,8 C 81 % 1021,3 hPa 0,0 l/m 0,1 km/h N -2,1 C 0,8 C 2,8 km/h
19.12.2018 19:00 0,5 C 82 % 1020,6 hPa 0,0 l/m 2,0 km/h N -2,2 C 0,5 C 7,2 km/h
19.12.2018 20:00 0,3 C 82 % 1020,4 hPa 0,0 l/m 3,1 km/h N -2,5 C 0,3 C 8,0 km/h
19.12.2018 21:00 -0,1 C 81 % 1020,1 hPa 0,0 l/m 1,7 km/h N -3,0 C -0,1 C 8,8 km/h
19.12.2018 22:00 -0,6 C 82 % 1019,8 hPa 0,0 l/m 1,3 km/h N -3,4 C -0,6 C 8,0 km/h
19.12.2018 23:00 -1,1 C 82 % 1019,7 hPa 0,0 l/m 1,5 km/h N -3,8 C -1,1 C 6,8 km/h
20.12.2018 00:00 -1,4 C 83 % 1019,4 hPa 0,0 l/m 0,9 km/h N -3,9 C -1,4 C 4,0 km/h
20.12.2018 01:00 -1,7 C 83 % 1019,1 hPa 0,0 l/m 0,1 km/h N -4,2 C -1,7 C 2,4 km/h
20.12.2018 02:00 -1,9 C 83 % 1019,3 hPa 0,0 l/m 0,2 km/h N -4,4 C -1,9 C 4,4 km/h
20.12.2018 03:00 -2,0 C 83 % 1019,5 hPa 0,0 l/m 0,3 km/h N -4,5 C -2,0 C 4,0 km/h
20.12.2018 04:00 -2,1 C 83 % 1019,8 hPa 0,0 l/m 0,3 km/h N -4,6 C -2,1 C 4,4 km/h
20.12.2018 05:00 -2,2 C 83 % 1020,2 hPa 0,0 l/m 0,0 km/h N -4,7 C -2,2 C 1,6 km/h
20.12.2018 06:00 -2,2 C 83 % 1020,5 hPa 0,0 l/m 0,0 km/h N -4,6 C -2,2 C 0,8 km/h
20.12.2018 07:00 -2,0 C 83 % 1021,0 hPa 0,0 l/m 0,1 km/h N -4,5 C -2,0 C 1,6 km/h
20.12.2018 08:00 -1,9 C 83 % 1021,3 hPa 0,0 l/m 0,0 km/h N -4,5 C -1,9 C 1,2 km/h
20.12.2018 09:00 -1,6 C 82 % 1021,6 hPa 0,0 l/m 0,0 km/h N -4,2 C -1,6 C 1,2 km/h
20.12.2018 10:00 -1,2 C 82 % 1021,8 hPa 0,0 l/m 0,0 km/h N -3,9 C -1,2 C 1,6 km/h
20.12.2018 11:00 -0,6 C 82 % 1021,3 hPa 0,3 l/m 0,1 km/h N -3,3 C -0,6 C 2,8 km/h
20.12.2018 12:00 -0,1 C 82 % 1021,1 hPa 0,3 l/m 0,0 km/h N -2,8 C -0,1 C 2,0 km/h
20.12.2018 13:00 -0,4 C 82 % 1021,3 hPa 0,0 l/m 0,1 km/h N -3,1 C -0,4 C 2,4 km/h
20.12.2018 14:00 -0,4 C 82 % 1021,4 hPa 0,0 l/m 0,0 km/h N -3,1 C -0,4 C 1,6 km/h
20.12.2018 15:00 -0,5 C 82 % 1021,8 hPa 0,0 l/m 0,0 km/h N -3,2 C -0,5 C 0,8 km/h
20.12.2018 16:00 -0,7 C 82 % 1022,3 hPa 0,0 l/m 0,1 km/h N -3,4 C -0,7 C 3,6 km/h
20.12.2018 17:00 -0,7 C 82 % 1022,7 hPa 0,0 l/m 0,7 km/h N -3,3 C -0,7 C 5,6 km/h
20.12.2018 18:00 -0,7 C 82 % 1022,9 hPa 0,0 l/m 0,5 km/h N -3,4 C -0,7 C 6,4 km/h
20.12.2018 19:00 -0,7 C 82 % 1023,0 hPa 0,0 l/m 0,4 km/h N -3,4 C -0,7 C 4,8 km/h
20.12.2018 20:00 -0,8 C 82 % 1023,2 hPa 0,0 l/m 0,1 km/h N -3,5 C -0,8 C 2,4 km/h
20.12.2018 21:00 -0,8 C 82 % 1023,6 hPa 0,0 l/m 0,0 km/h N -3,5 C -0,8 C 1,2 km/h
20.12.2018 22:00 -0,8 C 82 % 1023,6 hPa 0,0 l/m 0,1 km/h N -3,4 C -0,8 C 1,6 km/h
20.12.2018 23:00 -0,9 C 82 % 1023,5 hPa 0,0 l/m 0,2 km/h N -3,6 C -0,9 C 3,6 km/h
21.12.2018 00:00 -1,0 C 82 % 1023,5 hPa 0,0 l/m 0,2 km/h N -3,7 C -1,0 C 4,8 km/h
21.12.2018 01:00 -1,1 C 82 % 1024,0 hPa 0,0 l/m 0,1 km/h N -3,8 C -1,1 C 2,4 km/h
21.12.2018 02:00 -1,2 C 82 % 1024,1 hPa 0,0 l/m 0,1 km/h N -3,8 C -1,2 C 3,2 km/h
21.12.2018 03:00 -1,3 C 82 % 1023,8 hPa 0,0 l/m 0,1 km/h N -4,0 C -1,3 C 2,8 km/h
21.12.2018 04:00 -1,4 C 82 % 1023,3 hPa 0,0 l/m 0,1 km/h N -4,1 C -1,4 C 2,0 km/h
21.12.2018 05:00 -1,6 C 82 % 1023,2 hPa 0,0 l/m 0,0 km/h N -4,3 C -1,6 C 0,8 km/h
21.12.2018 06:00 -1,6 C 82 % 1023,3 hPa 0,0 l/m 0,0 km/h N -4,3 C -1,6 C 0,4 km/h
21.12.2018 07:00 -1,6 C 82 % 1022,9 hPa 0,0 l/m 0,1 km/h N -4,3 C -1,6 C 2,4 km/h
21.12.2018 08:00 -1,6 C 82 % 1022,6 hPa 0,0 l/m 0,0 km/h N -4,3 C -1,6 C 2,4 km/h
21.12.2018 09:00 -1,2 C 83 % 1022,0 hPa 0,0 l/m 0,0 km/h N -3,7 C -1,2 C 1,2 km/h
21.12.2018 10:00 -0,6 C 83 % 1021,3 hPa 0,0 l/m 0,1 km/h N -3,1 C -0,6 C 2,4 km/h
21.12.2018 11:00 -0,2 C 83 % 1020,4 hPa 0,0 l/m 0,2 km/h N -2,7 C -0,2 C 4,8 km/h
21.12.2018 12:00 0,1 C 82 % 1019,2 hPa 0,0 l/m 0,3 km/h N -2,6 C 0,1 C 4,4 km/h
21.12.2018 13:00 0,4 C 82 % 1018,0 hPa 0,0 l/m 0,3 km/h N -2,3 C 0,4 C 3,2 km/h
21.12.2018 14:00 0,6 C 82 % 1017,0 hPa 0,0 l/m 0,2 km/h N -2,1 C 0,6 C 5,6 km/h
21.12.2018 15:00 0,6 C 82 % 1016,4 hPa 0,0 l/m 0,0 km/h N -2,1 C 0,6 C 2,4 km/h
21.12.2018 16:00 0,7 C 82 % 1015,8 hPa 0,0 l/m 0,0 km/h N -2,0 C 0,7 C 1,2 km/h
21.12.2018 17:00 0,6 C 82 % 1015,1 hPa 0,0 l/m 0,1 km/h N -2,1 C 0,6 C 1,6 km/h
21.12.2018 18:00 0,6 C 82 % 1014,5 hPa 0,0 l/m 0,2 km/h N -2,1 C 0,6 C 2,4 km/h
21.12.2018 19:00 0,8 C 82 % 1014,1 hPa 0,0 l/m 0,0 km/h N -1,9 C 0,8 C 1,2 km/h
21.12.2018 20:00 1,1 C 82 % 1013,4 hPa 0,0 l/m 0,0 km/h N -1,6 C 1,1 C 1,6 km/h
21.12.2018 21:00 1,1 C 82 % 1012,4 hPa 0,0 l/m 0,1 km/h N -1,6 C 1,1 C 2,8 km/h
21.12.2018 22:00 0,6 C 82 % 1012,5 hPa 0,0 l/m 0,1 km/h N -2,2 C 0,6 C 2,0 km/h
21.12.2018 23:00 0,3 C 82 % 1012,9 hPa 0,0 l/m 0,1 km/h N -2,4 C 0,3 C 2,0 km/h
22.12.2018 00:00 0,6 C 82 % 1012,7 hPa 0,0 l/m 0,2 km/h N -2,1 C 0,6 C 4,0 km/h
22.12.2018 01:00 0,8 C 83 % 1012,7 hPa 0,0 l/m 0,0 km/h N -1,8 C 0,8 C 2,0 km/h
22.12.2018 02:00 1,7 C 82 % 1012,3 hPa 0,0 l/m 0,3 km/h N -1,0 C 1,7 C 3,6 km/h
22.12.2018 03:00 1,1 C 82 % 1012,0 hPa 0,0 l/m 0,3 km/h N -1,6 C 1,1 C 3,6 km/h
22.12.2018 04:00 1,3 C 82 % 1011,7 hPa 0,0 l/m 0,3 km/h N -1,4 C 1,3 C 4,8 km/h
22.12.2018 05:00 1,3 C 82 % 1011,5 hPa 0,0 l/m 0,3 km/h N -1,4 C 1,3 C 4,0 km/h
22.12.2018 06:00 7,1 C 83 % 1011,1 hPa 0,0 l/m 1,9 km/h N 4,4 C 7,1 C 12,5 km/h
22.12.2018 07:00 10,0 C 82 % 1010,7 hPa 0,0 l/m 2,5 km/h N 7,1 C 10,0 C 10,5 km/h
22.12.2018 08:00 11,1 C 79 % 1010,8 hPa 0,0 l/m 4,6 km/h N 7,6 C 10,9 C 19,3 km/h
22.12.2018 09:00 11,0 C 80 % 1011,7 hPa 1,6 l/m 8,1 km/h N 7,7 C 9,7 C 29,0 km/h
22.12.2018 10:00 10,8 C 80 % 1012,1 hPa 0,0 l/m 5,2 km/h N 7,5 C 10,3 C 18,9 km/h
22.12.2018 11:00 10,9 C 80 % 1012,0 hPa 0,3 l/m 2,0 km/h N 7,6 C 10,9 C 9,3 km/h
22.12.2018 12:00 10,4 C 81 % 1011,7 hPa 0,5 l/m 5,4 km/h N 7,2 C 10,4 C 19,7 km/h
22.12.2018 13:00 10,9 C 79 % 1011,8 hPa 0,3 l/m 12,2 km/h N 7,4 C 7,6 C 30,2 km/h
22.12.2018 14:00 10,9 C 76 % 1011,9 hPa 0,5 l/m 15,0 km/h N 6,8 C 6,3 C 41,8 km/h
22.12.2018 15:00 11,7 C 71 % 1012,1 hPa 0,0 l/m 17,5 km/h N 6,5 C 6,3 C 47,1 km/h
22.12.2018 16:00 11,3 C 72 % 1013,8 hPa 0,0 l/m 11,1 km/h N 6,5 C 8,5 C 40,6 km/h
22.12.2018 17:00 10,9 C 72 % 1013,8 hPa 0,0 l/m 9,6 km/h N 6,1 C 8,9 C 36,6 km/h
22.12.2018 18:00 9,3 C 78 % 1014,9 hPa 4,4 l/m 11,6 km/h N 5,5 C 6,1 C 32,6 km/h
22.12.2018 19:00 9,3 C 78 % 1015,2 hPa 0,3 l/m 11,7 km/h N 5,6 C 5,9 C 33,0 km/h
22.12.2018 20:00 9,6 C 74 % 1015,4 hPa 0,0 l/m 12,8 km/h N 5,1 C 5,7 C 34,2 km/h
22.12.2018 21:00 9,8 C 74 % 1015,8 hPa 0,0 l/m 15,8 km/h N 5,4 C 4,6 C 39,8 km/h
22.12.2018 22:00 9,6 C 75 % 1016,2 hPa 0,0 l/m 12,6 km/h N 5,3 C 5,8 C 32,2 km/h
22.12.2018 23:00 9,4 C 75 % 1016,4 hPa 0,0 l/m 14,0 km/h N 5,2 C 4,9 C 38,2 km/h
23.12.2018 00:00 9,7 C 71 % 1016,8 hPa 0,0 l/m 13,6 km/h N 4,7 C 5,4 C 33,8 km/h
23.12.2018 01:00 9,5 C 73 % 1017,1 hPa 0,0 l/m 10,4 km/h N 5,0 C 6,9 C 30,6 km/h
23.12.2018 02:00 9,4 C 73 % 1017,7 hPa 0,0 l/m 8,3 km/h N 4,7 C 8,1 C 30,5 km/h
23.12.2018 03:00 9,1 C 73 % 1018,4 hPa 0,0 l/m 6,0 km/h N 4,6 C 8,9 C 22,9 km/h
23.12.2018 04:00 8,9 C 73 % 1018,5 hPa 0,0 l/m 7,2 km/h N 4,3 C 8,2 C 23,3 km/h
23.12.2018 05:00 8,8 C 75 % 1018,8 hPa 0,0 l/m 9,0 km/h N 4,6 C 6,9 C 30,6 km/h
23.12.2018 06:00 8,8 C 74 % 1019,4 hPa 0,0 l/m 10,9 km/h N 4,4 C 5,8 C 31,8 km/h
23.12.2018 07:00 8,9 C 71 % 1020,3 hPa 0,0 l/m 9,9 km/h N 3,8 C 6,4 C 31,4 km/h
23.12.2018 08:00 8,8 C 71 % 1021,0 hPa 0,0 l/m 7,7 km/h N 3,8 C 7,8 C 24,1 km/h
23.12.2018 09:00 9,2 C 73 % 1021,5 hPa 0,0 l/m 8,6 km/h N 4,5 C 7,6 C 28,6 km/h
23.12.2018 10:00 9,6 C 71 % 1021,5 hPa 0,0 l/m 11,2 km/h N 4,5 C 6,4 C 30,6 km/h
23.12.2018 11:00 9,7 C 72 % 1020,9 hPa 0,0 l/m 10,5 km/h N 4,9 C 7,0 C 31,0 km/h
23.12.2018 12:00 9,8 C 72 % 1020,4 hPa 0,0 l/m 8,1 km/h N 5,0 C 8,3 C 24,5 km/h
23.12.2018 13:00 9,9 C 72 % 1020,6 hPa 0,0 l/m 6,1 km/h N 5,0 C 9,7 C 20,9 km/h
23.12.2018 14:00 9,8 C 72 % 1020,3 hPa 0,0 l/m 5,3 km/h N 5,0 C 9,4 C 20,9 km/h
23.12.2018 15:00 9,6 C 73 % 1019,8 hPa 0,0 l/m 3,0 km/h N 5,0 C 9,6 C 16,5 km/h
23.12.2018 16:00 9,6 C 73 % 1019,1 hPa 0,0 l/m 3,1 km/h N 5,0 C 9,6 C 18,9 km/h
23.12.2018 17:00 9,6 C 73 % 1018,6 hPa 0,0 l/m 1,6 km/h N 5,1 C 9,6 C 15,3 km/h
23.12.2018 18:00 9,4 C 74 % 1018,0 hPa 0,0 l/m 0,0 km/h N 5,0 C 9,4 C 1,2 km/h
23.12.2018 19:00 8,6 C 77 % 1017,5 hPa 0,0 l/m 0,7 km/h N 4,9 C 8,6 C 4,8 km/h
23.12.2018 20:00 8,0 C 80 % 1016,8 hPa 0,8 l/m 0,1 km/h N 4,8 C 8,0 C 2,0 km/h
23.12.2018 21:00 7,4 C 81 % 1015,8 hPa 1,0 l/m 0,0 km/h N 4,3 C 7,4 C 0,0 km/h
23.12.2018 22:00 6,9 C 81 % 1014,8 hPa 1,3 l/m 0,0 km/h N 3,9 C 6,9 C 0,4 km/h
23.12.2018 23:00 6,5 C 81 % 1013,1 hPa 0,8 l/m 0,0 km/h N 3,5 C 6,5 C 0,0 km/h
Min-Datum _ 19.12.18 23.12.18 22.12.18 - 17.12.18 - 19.12.18 19.12.18 17.12.18
_ Min-Zeit 06:30 07:45 07:30 - 01:15 - 06:30 06:30 01:45
Minimum _ -3,8 C 69 % 1010,3 hPa - 0,0 km/h - -6,4 C -3,8 C 0,0 km/h
Max-Datum _ 22.12.18 22.12.18 18.12.18 22.12.18 22.12.18 - 22.12.18 22.12.18 22.12.18
_ Max-Zeit 15:30 06:00 10:00 18:15 14:45 - 09:15 08:30 15:30
Maximum _ 11,8 C 84 % 1029,5 hPa 4,4 l/m 19,4 km/h
N
- 7,9 C 11,5 C 53,1 km/h
N
Durchschnitt _ 2,6 C 80 % 1020,9 hPa #13,5 l/m 2,3 km/h N -0,5 C 2,1 C 8,5 km/h